Time;durP1;ratioP1;P1;durP2;ratioP2;P2;SDS_P1;SDS_P2;PMS_P1;PMS_P2;Temp;Humidity;BMP_temperature;BMP_pressure;BME280_temperature;BME280_humidity;BME280_pressure;Samples;Min_cycle;Max_cycle;Signal;HPM_P1;HPM_P2
2022/03/07 00:01:50;;;;;;;11.13;6.93;;;-0.10;99.90;;;;;;5000290;28;20068;-80
2022/03/07 00:04:17;;;;;;;13.00;7.83;;;-0.20;99.90;;;;;;5016953;28;20461;-81
2022/03/07 00:06:43;;;;;;;9.53;7.00;;;-0.10;99.90;;;;;;5000898;28;20068;-80
2022/03/07 00:09:09;;;;;;;15.20;8.20;;;-0.20;99.90;;;;;;5000616;28;20674;-80
2022/03/07 00:11:36;;;;;;;11.37;7.70;;;-0.20;99.90;;;;;;5017078;28;20328;-80
2022/03/07 00:14:02;;;;;;;11.07;7.40;;;-0.20;99.90;;;;;;5050993;28;20036;-80
2022/03/07 00:16:29;;;;;;;11.90;7.67;;;-0.20;99.90;;;;;;5017274;28;20608;-80
2022/03/07 00:18:55;;;;;;;12.03;8.00;;;-0.20;99.90;;;;;;5016715;28;20315;-80
2022/03/07 00:21:21;;;;;;;14.83;8.03;;;-0.30;99.90;;;;;;5030806;28;20311;-80
2022/03/07 00:23:47;;;;;;;15.63;8.23;;;-0.20;99.90;;;;;;5033569;28;20123;-80
2022/03/07 00:26:13;;;;;;;12.33;8.07;;;-0.30;99.90;;;;;;5000777;28;20295;-80
2022/03/07 00:28:39;;;;;;;15.03;8.67;;;-0.30;99.90;;;;;;4984107;28;20327;-79
2022/03/07 00:31:06;;;;;;;11.70;7.77;;;-0.30;99.90;;;;;;5000296;28;20033;-80
2022/03/07 00:33:32;;;;;;;14.20;8.23;;;-0.40;99.90;;;;;;4999947;28;20058;-80
2022/03/07 00:35:58;;;;;;;12.43;8.13;;;-0.40;99.90;;;;;;5000721;28;20291;-80
2022/03/07 00:38:24;;;;;;;11.83;7.63;;;-0.50;99.90;;;;;;5000209;28;20295;-79
2022/03/07 00:40:50;;;;;;;15.13;8.77;;;-0.50;99.90;;;;;;4998337;28;20287;-80
2022/03/07 00:43:16;;;;;;;11.77;7.87;;;-0.50;99.90;;;;;;5033193;28;20041;-79
2022/03/07 00:45:42;;;;;;;17.03;9.13;;;-0.50;99.90;;;;;;5000392;28;20041;-80
2022/03/07 00:48:08;;;;;;;13.40;8.53;;;-0.50;99.90;;;;;;5016703;28;20051;-79
2022/03/07 00:50:33;;;;;;;12.70;8.63;;;-0.50;99.90;;;;;;5016221;28;20283;-80
2022/03/07 00:53:00;;;;;;;14.50;8.17;;;-0.50;99.90;;;;;;5016753;28;20041;-80
2022/03/07 00:55:26;;;;;;;12.37;7.90;;;-0.50;99.90;;;;;;5030133;28;20037;-80
2022/03/07 00:57:52;;;;;;;11.27;7.80;;;-0.50;99.90;;;;;;5016966;28;20283;-80
2022/03/07 01:00:17;;;;;;;13.00;8.10;;;-0.50;99.90;;;;;;5016917;28;20041;-80
2022/03/07 01:02:43;;;;;;;9.80;6.63;;;-0.60;99.90;;;;;;5001502;28;20121;-80
2022/03/07 01:05:09;;;;;;;12.57;8.53;;;-0.60;99.90;;;;;;5046336;28;20048;-79
2022/03/07 01:07:35;;;;;;;12.40;7.17;;;-0.70;99.90;;;;;;5016552;28;20068;-79
2022/03/07 01:10:01;;;;;;;14.43;8.57;;;-0.80;99.90;;;;;;4999826;28;20087;-79
2022/03/07 01:12:27;;;;;;;13.10;8.37;;;-0.80;99.90;;;;;;5032640;28;20064;-79
2022/03/07 01:14:52;;;;;;;15.47;8.73;;;-0.80;99.90;;;;;;5014674;28;20311;-79
2022/03/07 01:17:18;;;;;;;11.13;8.43;;;-0.80;99.90;;;;;;5032491;28;20120;-80
2022/03/07 01:19:44;;;;;;;13.90;8.67;;;-0.90;99.90;;;;;;5000003;28;20041;-79
2022/03/07 01:22:10;;;;;;;14.20;9.47;;;-0.90;99.90;;;;;;4999908;28;20053;-79
2022/03/07 01:24:37;;;;;;;12.50;8.80;;;-0.90;99.90;;;;;;5000280;28;20435;-80
2022/03/07 01:27:03;;;;;;;9.97;7.20;;;-0.90;99.90;;;;;;5000591;28;20076;-79
2022/03/07 01:29:29;;;;;;;11.73;8.57;;;-0.90;99.90;;;;;;5032217;28;20779;-79
2022/03/07 01:31:55;;;;;;;17.70;8.97;;;-0.90;99.90;;;;;;4999925;28;20313;-80
2022/03/07 01:34:21;;;;;;;14.33;8.40;;;-0.90;99.90;;;;;;5000057;28;20503;-80
2022/03/07 01:36:46;;;;;;;11.67;9.07;;;-0.90;99.90;;;;;;5016092;28;20037;-80
2022/03/07 01:39:12;;;;;;;15.57;9.73;;;-1.00;99.90;;;;;;4983710;28;20067;-81
2022/03/07 01:41:38;;;;;;;14.87;9.10;;;-1.00;99.90;;;;;;4999650;28;20045;-80
2022/03/07 01:44:04;;;;;;;14.93;9.47;;;-0.90;99.90;;;;;;5031855;28;20041;-80
2022/03/07 01:46:33;;;;;;;14.40;9.20;;;-0.90;99.90;;;;;;5014406;28;20102;-80
2022/03/07 01:48:59;;;;;;;13.93;9.10;;;-1.00;99.90;;;;;;4999800;28;20033;-80
2022/03/07 01:51:25;;;;;;;13.63;8.70;;;-1.00;99.90;;;;;;5015836;28;20337;-80
2022/03/07 01:53:51;;;;;;;13.13;8.53;;;-0.90;99.90;;;;;;5016316;28;20029;-80
2022/03/07 01:56:16;;;;;;;14.57;8.70;;;-0.90;99.90;;;;;;5000459;28;20333;-80
2022/03/07 01:58:42;;;;;;;15.97;9.90;;;-1.00;99.90;;;;;;5019610;28;20041;-80
2022/03/07 02:01:08;;;;;;;15.57;9.23;;;-1.00;99.90;;;;;;5011741;28;20492;-81
2022/03/07 02:03:34;;;;;;;13.77;9.17;;;-1.00;99.90;;;;;;5036032;28;20044;-80
2022/03/07 02:06:00;;;;;;;12.17;9.10;;;-0.90;99.90;;;;;;5003342;28;20032;-80
2022/03/07 02:08:26;;;;;;;15.93;9.27;;;-0.90;99.90;;;;;;5019048;28;20099;-80
2022/03/07 02:10:52;;;;;;;15.20;9.50;;;-1.00;99.90;;;;;;5019519;28;20283;-80
2022/03/07 02:13:20;;;;;;;13.90;9.67;;;-1.00;99.90;;;;;;5036295;28;20287;-80
2022/03/07 02:15:53;;;;;;;13.77;9.53;;;-1.00;99.90;;;;;;5019491;28;20108;-80
2022/03/07 02:18:21;;;;;;;11.77;8.80;;;-1.00;99.90;;;;;;5019256;28;20302;-80
2022/03/07 02:21:00;;;;;;;14.90;9.47;;;-1.00;99.90;;;;;;5014120;28;20286;-79
2022/03/07 02:23:26;;;;;;;16.77;9.83;;;-1.00;99.90;;;;;;5018309;28;20280;-80
2022/03/07 02:25:51;;;;;;;11.77;9.27;;;-1.00;99.90;;;;;;5038366;28;20295;-80
2022/03/07 02:28:17;;;;;;;17.07;9.27;;;-1.10;99.90;;;;;;5008520;28;20144;-87
2022/03/07 02:30:43;;;;;;;16.23;9.83;;;-1.10;99.90;;;;;;5016688;28;20037;-87
2022/03/07 02:33:13;;;;;;;15.70;10.47;;;-1.10;99.90;;;;;;5008605;28;20459;-87
2022/03/07 02:35:39;;;;;;;13.23;9.50;;;-1.10;99.90;;;;;;5003581;28;20175;-86
2022/03/07 02:38:12;;;;;;;16.30;10.60;;;-1.20;99.90;;;;;;5013136;28;20307;-87
2022/03/07 02:40:38;;;;;;;15.37;10.27;;;-1.20;99.90;;;;;;4999914;28;20300;-87
2022/03/07 02:43:04;;;;;;;15.53;10.50;;;-1.20;99.90;;;;;;5000804;28;20283;-88
2022/03/07 02:45:31;;;;;;;15.47;9.80;;;-1.10;99.90;;;;;;5009646;28;20632;-87
2022/03/07 02:47:57;;;;;;;15.00;10.43;;;-1.10;99.90;;;;;;4996116;28;20083;-87
2022/03/07 02:50:23;;;;;;;14.73;10.10;;;-1.10;99.90;;;;;;5017962;28;20292;-87
2022/03/07 02:52:49;;;;;;;16.87;10.03;;;-1.20;99.90;;;;;;4999851;28;20351;-87
2022/03/07 02:55:14;;;;;;;13.50;9.40;;;-1.20;99.90;;;;;;4966860;28;20576;-87
2022/03/07 02:57:40;;;;;;;17.50;9.33;;;-1.20;99.90;;;;;;4999117;28;20041;-87
2022/03/07 03:00:07;;;;;;;18.67;10.63;;;-1.30;99.90;;;;;;4999415;28;20583;-86
2022/03/07 03:02:32;;;;;;;16.07;9.93;;;-1.30;99.90;;;;;;5000411;28;20049;-88
2022/03/07 03:04:58;;;;;;;17.30;9.77;;;-1.30;99.90;;;;;;4968330;28;20296;-88
2022/03/07 03:07:24;;;;;;;16.50;10.13;;;-1.30;99.90;;;;;;5019476;28;20038;-87
2022/03/07 03:09:49;;;;;;;15.70;10.83;;;-1.40;99.90;;;;;;4963129;28;20121;-86
2022/03/07 03:12:15;;;;;;;17.20;10.60;;;-1.40;99.90;;;;;;5002062;28;20064;-87
2022/03/07 03:14:41;;;;;;;15.70;10.30;;;-1.50;99.90;;;;;;4999345;28;20448;-87
2022/03/07 03:17:07;;;;;;;17.53;10.27;;;-1.50;99.90;;;;;;4963657;28;20036;-88
2022/03/07 03:19:33;;;;;;;14.50;10.37;;;-1.40;99.90;;;;;;4977667;28;20064;-88
2022/03/07 03:21:58;;;;;;;18.83;10.93;;;-1.50;99.90;;;;;;4998950;28;20047;-87
2022/03/07 03:24:24;;;;;;;16.70;10.90;;;-1.40;99.90;;;;;;5018645;28;20299;-87
2022/03/07 03:26:50;;;;;;;18.17;11.13;;;-1.40;99.90;;;;;;4986300;28;20049;-88
2022/03/07 03:29:17;;;;;;;19.60;12.10;;;-1.50;99.90;;;;;;4997046;28;20033;-87
2022/03/07 03:31:43;;;;;;;16.47;11.30;;;-1.40;99.90;;;;;;4984887;28;20045;-88
2022/03/07 03:34:09;;;;;;;16.57;11.17;;;-1.50;99.90;;;;;;5007600;28;20296;-87
2022/03/07 03:36:34;;;;;;;20.10;11.77;;;-1.50;99.90;;;;;;5018640;28;20041;-88
2022/03/07 03:39:01;;;;;;;19.83;12.27;;;-1.50;99.90;;;;;;5018399;28;20651;-88
2022/03/07 03:41:27;;;;;;;15.90;11.03;;;-1.50;99.90;;;;;;4983007;28;20041;-87
2022/03/07 03:43:53;;;;;;;19.63;11.80;;;-1.50;99.90;;;;;;4999648;28;20280;-87
2022/03/07 03:46:18;;;;;;;19.93;11.77;;;-1.40;99.90;;;;;;5001273;28;20033;-87
2022/03/07 03:48:44;;;;;;;16.73;11.97;;;-1.40;99.90;;;;;;5018173;28;20114;-87
2022/03/07 03:51:10;;;;;;;19.80;11.47;;;-1.40;99.90;;;;;;5002124;28;20212;-87
2022/03/07 03:53:36;;;;;;;16.20;11.10;;;-1.50;99.90;;;;;;5018522;28;20087;-87
2022/03/07 03:56:02;;;;;;;19.53;11.80;;;-1.50;99.90;;;;;;5001685;28;20097;-87
2022/03/07 03:58:27;;;;;;;20.43;12.27;;;-1.50;99.90;;;;;;5018244;28;20081;-88
2022/03/07 04:00:53;;;;;;;17.20;11.67;;;-1.50;99.90;;;;;;5031720;28;20045;-88
2022/03/07 04:03:19;;;;;;;24.60;12.70;;;-1.40;99.90;;;;;;5001624;28;20041;-79
2022/03/07 04:05:44;;;;;;;19.93;11.90;;;-1.50;99.90;;;;;;5017835;28;20041;-79
2022/03/07 04:08:13;;;;;;;18.83;11.50;;;-1.50;99.90;;;;;;5033955;28;20106;-80
2022/03/07 04:10:39;;;;;;;20.57;11.63;;;-1.60;99.90;;;;;;4997485;28;20416;-80
2022/03/07 04:13:04;;;;;;;18.33;11.20;;;-1.60;99.90;;;;;;5000383;28;20287;-80
2022/03/07 04:15:30;;;;;;;21.23;11.80;;;-1.60;99.90;;;;;;5017189;28;20063;-80
2022/03/07 04:17:56;;;;;;;18.07;11.47;;;-1.60;99.90;;;;;;5015333;28;20503;-80
2022/03/07 04:20:22;;;;;;;21.73;12.13;;;-1.60;99.90;;;;;;5000535;28;20073;-80
2022/03/07 04:22:47;;;;;;;18.37;12.27;;;-1.60;99.90;;;;;;5016731;28;20048;-80
2022/03/07 04:25:13;;;;;;;28.07;13.63;;;-1.50;99.90;;;;;;5000608;28;20056;-87
2022/03/07 04:27:39;;;;;;;18.87;12.30;;;-1.50;99.90;;;;;;5034356;28;20044;-88
2022/03/07 04:30:07;;;;;;;18.13;11.67;;;-1.50;99.90;;;;;;5018575;28;20037;-88
2022/03/07 04:32:36;;;;;;;18.83;11.30;;;-1.40;99.90;;;;;;5018312;28;20098;-87
2022/03/07 04:35:06;;;;;;;17.90;11.87;;;-1.50;99.90;;;;;;5002135;28;20280;-88
2022/03/07 04:37:39;;;;;;;17.87;11.20;;;-1.40;99.90;;;;;;5017310;28;20299;-87
2022/03/07 04:40:07;;;;;;;21.20;13.13;;;-1.40;99.90;;;;;;5017337;28;20283;-87
2022/03/07 04:42:32;;;;;;;23.17;13.60;;;-1.40;99.90;;;;;;5016999;28;20397;-88
2022/03/07 04:44:58;;;;;;;20.90;12.60;;;-1.40;99.90;;;;;;5002252;28;20762;-88
2022/03/07 04:47:24;;;;;;;22.73;13.53;;;-1.50;99.90;;;;;;5000456;28;20037;-88
2022/03/07 04:49:50;;;;;;;20.47;12.13;;;-1.50;99.90;;;;;;5034438;28;20730;-88
2022/03/07 04:52:15;;;;;;;21.83;13.07;;;-1.50;99.90;;;;;;5017325;28;20037;-87
2022/03/07 04:54:41;;;;;;;23.43;13.30;;;-1.50;99.90;;;;;;5016969;28;20090;-87
2022/03/07 04:57:07;;;;;;;20.77;12.53;;;-1.50;99.90;;;;;;5016732;28;20029;-87
2022/03/07 04:59:33;;;;;;;23.10;13.40;;;-1.50;99.90;;;;;;5016778;28;20051;-87
2022/03/07 05:01:59;;;;;;;20.50;12.83;;;-1.40;99.90;;;;;;5000546;28;20271;-88
2022/03/07 05:04:25;;;;;;;21.13;13.50;;;-1.40;99.90;;;;;;5000652;28;20033;-87
2022/03/07 05:06:50;;;;;;;23.23;13.27;;;-1.30;99.90;;;;;;5016846;28;20037;-87
2022/03/07 05:09:16;;;;;;;21.10;13.13;;;-1.30;99.90;;;;;;5016547;28;20040;-87
2022/03/07 05:11:42;;;;;;;21.67;13.50;;;-1.30;99.90;;;;;;5016470;28;20075;-87
2022/03/07 05:14:07;;;;;;;19.33;12.97;;;-1.30;99.90;;;;;;5017926;28;20119;-87
2022/03/07 05:16:33;;;;;;;21.37;12.40;;;-1.20;99.90;;;;;;5017465;28;20396;-87
2022/03/07 05:18:59;;;;;;;22.10;12.87;;;-1.20;99.90;;;;;;4994571;28;20041;-87
2022/03/07 05:21:25;;;;;;;24.00;12.90;;;-1.10;99.90;;;;;;5016617;28;20044;-87
2022/03/07 05:23:50;;;;;;;23.07;13.80;;;-1.10;99.90;;;;;;5017418;28;20045;-88
2022/03/07 05:26:16;;;;;;;21.27;12.57;;;-1.10;99.90;;;;;;5000618;28;20053;-87
2022/03/07 05:28:42;;;;;;;24.03;13.90;;;-1.20;99.90;;;;;;5000818;28;20052;-88
2022/03/07 05:31:13;;;;;;;20.57;12.37;;;-1.10;99.90;;;;;;5001179;28;20037;-87
2022/03/07 05:33:40;;;;;;;20.52;12.60;;;-1.20;99.90;;;;;;5022811;28;20489;-87
2022/03/07 05:36:06;;;;;;;19.43;11.13;;;-1.20;99.90;;;;;;5037896;28;20064;-87
2022/03/07 05:38:32;;;;;;;21.43;12.50;;;-1.20;99.90;;;;;;5028310;28;20291;-88
2022/03/07 05:40:58;;;;;;;21.43;13.00;;;-1.20;99.90;;;;;;5021026;28;20315;-87
2022/03/07 05:43:24;;;;;;;20.97;12.63;;;-1.30;99.90;;;;;;5021042;28;20364;-88
2022/03/07 05:45:50;;;;;;;20.33;12.13;;;-1.30;99.90;;;;;;5020836;28;20040;-87
2022/03/07 05:48:16;;;;;;;17.53;10.93;;;-1.30;99.90;;;;;;5004129;28;20299;-86
2022/03/07 05:50:42;;;;;;;18.43;11.83;;;-1.30;99.90;;;;;;4999805;28;21351;-88
2022/03/07 05:53:08;;;;;;;19.13;10.90;;;-1.30;99.90;;;;;;5020879;28;20416;-88
2022/03/07 05:55:34;;;;;;;15.73;10.90;;;-1.30;99.90;;;;;;5004470;28;20492;-88
2022/03/07 05:58:00;;;;;;;17.63;11.17;;;-1.30;99.90;;;;;;5021055;28;20279;-87
2022/03/07 06:00:27;;;;;;;20.27;12.57;;;-1.30;99.90;;;;;;4991879;28;20033;-87
2022/03/07 06:02:53;;;;;;;18.00;10.77;;;-1.40;99.90;;;;;;5003732;28;20291;-86
2022/03/07 06:05:20;;;;;;;18.10;10.77;;;-1.40;99.90;;;;;;5020411;28;20315;-87
2022/03/07 06:07:46;;;;;;;18.07;12.23;;;-1.40;99.90;;;;;;5019338;28;20303;-87
2022/03/07 06:10:11;;;;;;;20.40;11.57;;;-1.40;99.90;;;;;;5003583;28;20291;-87
2022/03/07 06:12:37;;;;;;;18.80;12.10;;;-1.40;99.90;;;;;;5020822;28;20125;-87
2022/03/07 06:15:04;;;;;;;19.93;11.43;;;-1.40;99.90;;;;;;5020479;28;20052;-87
2022/03/07 06:17:36;;;;;;;20.43;12.10;;;-1.30;99.90;;;;;;5005311;28;20123;-87
2022/03/07 06:20:03;;;;;;;19.52;12.15;;;-1.40;99.90;;;;;;5018995;28;20283;-87
2022/03/07 06:22:28;;;;;;;17.73;11.77;;;-1.40;99.90;;;;;;5008246;28;20037;-87
2022/03/07 06:24:54;;;;;;;19.07;12.13;;;-1.40;99.90;;;;;;4986853;28;20369;-86
2022/03/07 06:27:23;;;;;;;21.17;11.70;;;-1.40;99.90;;;;;;5003835;28;20055;-86
2022/03/07 06:29:50;;;;;;;18.10;10.60;;;-1.50;99.90;;;;;;5037450;28;20037;-87
2022/03/07 06:32:16;;;;;;;17.53;11.57;;;-1.40;99.90;;;;;;5021346;28;20363;-86
2022/03/07 06:34:42;;;;;;;20.03;12.33;;;-1.40;99.90;;;;;;5022697;28;20349;-87
2022/03/07 06:37:07;;;;;;;21.37;12.83;;;-1.50;99.90;;;;;;5032923;28;20035;-87
2022/03/07 06:39:33;;;;;;;22.60;12.73;;;-1.40;99.90;;;;;;5026745;28;20037;-87
2022/03/07 06:41:59;;;;;;;21.63;12.87;;;-1.30;99.90;;;;;;5038102;28;20045;-88
2022/03/07 06:44:24;;;;;;;23.10;13.17;;;-1.40;99.90;;;;;;4994043;28;20092;-88
2022/03/07 06:46:50;;;;;;;23.83;13.60;;;-1.40;99.90;;;;;;5014647;28;20045;-87
2022/03/07 06:49:16;;;;;;;23.37;13.70;;;-1.50;99.90;;;;;;5019929;28;20045;-87
2022/03/07 06:51:42;;;;;;;22.90;13.03;;;-1.40;99.90;;;;;;5003621;28;20040;-87
2022/03/07 06:54:07;;;;;;;22.13;12.53;;;-1.40;99.90;;;;;;5019620;28;20558;-87
2022/03/07 06:56:33;;;;;;;25.07;12.77;;;-1.30;99.90;;;;;;5019203;28;20037;-86
2022/03/07 06:58:59;;;;;;;22.77;12.30;;;-1.30;99.90;;;;;;4986204;28;20079;-88
2022/03/07 07:01:25;;;;;;;19.87;13.27;;;-1.20;99.90;;;;;;5037210;28;20053;-87
2022/03/07 07:03:51;;;;;;;26.10;14.10;;;-1.10;99.90;;;;;;5019981;28;20827;-87
2022/03/07 07:06:16;;;;;;;23.73;14.33;;;-1.00;99.90;;;;;;5010640;28;20055;-87
2022/03/07 07:08:42;;;;;;;21.60;14.23;;;-0.90;99.90;;;;;;5024942;28;20033;-86
2022/03/07 07:11:08;;;;;;;25.83;14.33;;;-0.80;99.90;;;;;;5009142;28;20485;-86
2022/03/07 07:13:33;;;;;;;28.07;14.17;;;-0.70;99.90;;;;;;5020596;28;20102;-87
2022/03/07 07:15:59;;;;;;;23.93;14.07;;;-0.70;99.90;;;;;;4992625;28;20492;-86
2022/03/07 07:18:25;;;;;;;23.80;14.83;;;-0.70;99.90;;;;;;5037357;28;20076;-86
2022/03/07 07:20:52;;;;;;;26.60;15.97;;;-0.50;99.90;;;;;;5015153;28;20041;-87
2022/03/07 07:23:20;;;;;;;27.37;16.60;;;-0.50;99.90;;;;;;5034456;28;20329;-87
2022/03/07 07:25:46;;;;;;;31.50;16.17;;;-0.40;99.90;;;;;;5018757;28;20292;-87
2022/03/07 07:28:13;;;;;;;28.27;16.37;;;-0.40;99.90;;;;;;5034477;28;20304;-86
2022/03/07 07:30:39;;;;;;;26.77;16.47;;;-0.30;99.90;;;;;;5010823;28;20667;-87
2022/03/07 07:33:05;;;;;;;29.63;16.63;;;-0.20;99.90;;;;;;4995381;28;20299;-87
2022/03/07 07:35:33;;;;;;;31.63;17.63;;;-0.10;99.90;;;;;;5016780;28;20049;-88
2022/03/07 07:38:00;;;;;;;32.87;18.10;;;-0.10;99.90;;;;;;5031111;28;20295;-88
2022/03/07 07:40:26;;;;;;;31.17;17.50;;;0.10;99.90;;;;;;5009550;28;20298;-87
2022/03/07 07:42:52;;;;;;;33.20;18.07;;;0.10;99.90;;;;;;4999910;28;20283;-87
2022/03/07 07:45:18;;;;;;;31.10;18.80;;;0.40;99.90;;;;;;5016703;28;20316;-87
2022/03/07 07:47:43;;;;;;;35.07;18.33;;;0.40;99.90;;;;;;4996488;28;20140;-87
2022/03/07 07:50:10;;;;;;;31.70;17.87;;;0.60;99.90;;;;;;5016264;28;20739;-87
2022/03/07 07:52:36;;;;;;;30.40;17.63;;;0.70;99.90;;;;;;4985242;28;20041;-88
2022/03/07 07:55:04;;;;;;;34.70;20.37;;;0.90;99.90;;;;;;5015096;28;21140;-87
2022/03/07 07:57:34;;;;;;;41.20;23.07;;;0.90;99.90;;;;;;5032201;28;20049;-87
2022/03/07 07:59:59;;;;;;;36.67;21.40;;;1.10;99.90;;;;;;4996188;28;20295;-88
2022/03/07 08:02:25;;;;;;;34.23;19.30;;;1.20;99.90;;;;;;5009836;28;20957;-88
2022/03/07 08:04:54;;;;;;;29.43;17.90;;;1.30;99.90;;;;;;4993901;28;20052;-88
2022/03/07 08:07:20;;;;;;;24.63;15.17;;;1.40;99.90;;;;;;5012014;28;20503;-88
2022/03/07 08:09:46;;;;;;;23.30;15.07;;;1.50;99.90;;;;;;5015412;28;20295;-88
2022/03/07 08:12:12;;;;;;;28.80;15.50;;;1.50;99.90;;;;;;4998007;28;20120;-89
2022/03/07 08:14:38;;;;;;;26.97;15.53;;;1.60;99.90;;;;;;5032217;28;20396;-88
2022/03/07 08:17:05;;;;;;;23.50;15.53;;;1.70;99.90;;;;;;5011047;28;20284;-88
2022/03/07 08:19:31;;;;;;;24.70;15.13;;;1.80;99.90;;;;;;5016418;28;20374;-89
2022/03/07 08:21:57;;;;;;;26.47;15.60;;;1.90;99.90;;;;;;4999770;28;20370;-88
2022/03/07 08:24:23;;;;;;;26.83;15.93;;;2.10;99.90;;;;;;5015880;28;20103;-88
2022/03/07 08:26:49;;;;;;;22.83;13.00;;;2.20;99.90;;;;;;5016235;28;20291;-87
2022/03/07 08:29:15;;;;;;;19.70;11.13;;;2.40;99.90;;;;;;5012915;28;20383;-87
2022/03/07 08:31:41;;;;;;;18.73;10.97;;;2.50;99.90;;;;;;4997523;28;20356;-88
2022/03/07 08:34:07;;;;;;;18.60;10.43;;;2.70;99.90;;;;;;5006409;28;20037;-87
2022/03/07 08:36:33;;;;;;;18.77;10.80;;;2.90;99.90;;;;;;4999787;28;20052;-88
2022/03/07 08:38:59;;;;;;;15.27;9.43;;;3.00;99.90;;;;;;5031424;28;20423;-88
2022/03/07 08:41:25;;;;;;;16.33;9.40;;;3.20;99.90;;;;;;5016437;28;20119;-88
2022/03/07 08:43:52;;;;;;;13.97;8.80;;;3.20;99.90;;;;;;5014859;28;20045;-87
2022/03/07 08:46:18;;;;;;;16.97;10.07;;;3.30;99.90;;;;;;4999641;28;20341;-87
2022/03/07 08:48:44;;;;;;;14.23;8.30;;;3.50;99.90;;;;;;5015199;28;20039;-87
2022/03/07 08:51:10;;;;;;;13.43;8.47;;;3.60;99.90;;;;;;5030747;28;20400;-87
2022/03/07 08:53:36;;;;;;;9.07;5.83;;;3.70;99.90;;;;;;5031545;28;20056;-88
2022/03/07 08:56:02;;;;;;;8.33;4.90;;;3.70;99.90;;;;;;5013661;28;20032;-87
2022/03/07 08:58:28;;;;;;;10.10;5.13;;;3.80;99.90;;;;;;5014505;28;20083;-87
2022/03/07 09:00:53;;;;;;;11.23;6.13;;;3.90;99.90;;;;;;5012944;28;20626;-88
2022/03/07 09:03:19;;;;;;;10.90;5.80;;;4.10;99.90;;;;;;5030013;28;20037;-88
2022/03/07 09:05:45;;;;;;;11.27;6.17;;;4.10;99.90;;;;;;4998290;28;20040;-87
2022/03/07 09:08:11;;;;;;;9.90;5.37;;;4.20;99.90;;;;;;4995543;28;20069;-87
2022/03/07 09:10:37;;;;;;;11.70;6.80;;;4.30;99.90;;;;;;5029953;28;20120;-87
2022/03/07 09:13:02;;;;;;;11.37;6.10;;;4.30;99.90;;;;;;5015753;28;20041;-87
2022/03/07 09:15:28;;;;;;;11.97;6.50;;;4.40;99.90;;;;;;5032138;28;20037;-85
2022/03/07 09:17:54;;;;;;;14.20;6.90;;;4.50;99.90;;;;;;5034561;28;20036;-88
2022/03/07 09:20:20;;;;;;;9.60;5.73;;;4.60;99.90;;;;;;5014965;28;20041;-88
2022/03/07 09:22:46;;;;;;;10.47;6.23;;;4.70;99.90;;;;;;4999992;28;20045;-87
2022/03/07 09:25:13;;;;;;;9.33;5.07;;;4.80;99.90;;;;;;5011304;28;20749;-88
2022/03/07 09:27:39;;;;;;;7.77;4.07;;;4.90;99.90;;;;;;5027709;28;20040;-87
2022/03/07 09:30:06;;;;;;;9.73;4.97;;;5.00;99.90;;;;;;4999416;28;20033;-88
2022/03/07 09:32:32;;;;;;;7.60;4.80;;;5.20;99.90;;;;;;4999521;28;20067;-87
2022/03/07 09:34:58;;;;;;;8.53;4.13;;;5.30;99.90;;;;;;4997360;28;20123;-89
2022/03/07 09:37:24;;;;;;;6.67;3.83;;;5.40;99.90;;;;;;5015515;28;20144;-87
2022/03/07 09:39:50;;;;;;;9.20;4.03;;;5.40;99.90;;;;;;5031907;28;20052;-88
2022/03/07 09:42:16;;;;;;;7.17;3.77;;;5.50;99.90;;;;;;5015681;28;20033;-89
2022/03/07 09:44:42;;;;;;;8.10;3.60;;;5.60;99.90;;;;;;5015511;28;20695;-88
2022/03/07 09:47:08;;;;;;;9.60;4.20;;;5.70;99.90;;;;;;5014475;28;20037;-88
2022/03/07 09:49:34;;;;;;;7.30;4.00;;;5.80;99.90;;;;;;4999204;28;20051;-87
2022/03/07 09:52:00;;;;;;;7.97;4.30;;;5.70;99.90;;;;;;5031284;28;20041;-88
2022/03/07 09:54:26;;;;;;;7.07;4.00;;;5.60;99.90;;;;;;5014805;28;20033;-88
2022/03/07 09:56:54;;;;;;;7.30;4.57;;;5.60;99.90;;;;;;5014617;28;20029;-88
2022/03/07 09:59:21;;;;;;;9.27;4.30;;;5.60;99.90;;;;;;5010075;28;20079;-89
2022/03/07 10:02:05;;;;;;;8.60;5.13;;;5.60;99.90;;;;;;4998563;28;20041;-88
2022/03/07 10:04:32;;;;;;;10.00;5.00;;;5.60;99.90;;;;;;5014541;28;20053;-88
2022/03/07 10:07:01;;;;;;;9.53;5.00;;;5.70;99.90;;;;;;4994802;28;20087;-89
2022/03/07 10:09:28;;;;;;;8.57;4.70;;;5.70;99.90;;;;;;5031141;28;20049;-88
2022/03/07 10:12:00;;;;;;;5.60;3.13;;;5.70;99.90;;;;;;5045966;28;20042;-88
2022/03/07 10:14:44;;;;;;;6.32;3.35;;;5.90;99.90;;;;;;5014928;28;20068;-88
2022/03/07 10:17:24;;;;;;;6.70;3.53;;;5.90;99.90;;;;;;5031132;28;20073;-88
2022/03/07 10:19:51;;;;;;;8.20;4.00;;;5.90;99.90;;;;;;5034747;28;20036;-87
2022/03/07 10:22:27;;;;;;;12.30;4.77;;;6.00;99.90;;;;;;5034931;28;20041;-89
2022/03/07 10:24:58;;;;;;;7.13;4.40;;;6.10;99.90;;;;;;5020392;28;20535;-89
2022/03/07 10:27:26;;;;;;;8.57;4.30;;;6.10;99.90;;;;;;5018788;28;20071;-89
2022/03/07 10:29:52;;;;;;;6.20;4.43;;;6.30;99.90;;;;;;5017984;28;20388;-88
2022/03/07 10:32:19;;;;;;;7.77;4.40;;;6.30;99.90;;;;;;4998113;28;20033;-89
2022/03/07 10:34:44;;;;;;;8.33;4.43;;;6.40;99.90;;;;;;4986311;28;20111;-88
2022/03/07 10:37:12;;;;;;;8.53;4.57;;;6.40;99.90;;;;;;5018418;28;21024;-87
2022/03/07 10:39:46;;;;;;;7.57;3.77;;;6.40;99.90;;;;;;5018176;28;20116;-88
2022/03/07 10:42:19;;;;;;;5.47;3.97;;;6.60;99.90;;;;;;5018675;28;20029;-88
2022/03/07 10:44:45;;;;;;;7.57;4.30;;;6.70;99.90;;;;;;5018936;28;20037;-89
2022/03/07 10:47:15;;;;;;;6.13;4.00;;;6.80;99.90;;;;;;5021284;28;20044;-89
2022/03/07 10:49:51;;;;;;;5.50;4.17;;;7.00;99.90;;;;;;5020854;28;20037;-88
2022/03/07 10:52:18;;;;;;;5.97;4.17;;;7.00;99.90;;;;;;5017241;28;20497;-88
2022/03/07 10:54:44;;;;;;;8.83;4.90;;;6.80;99.90;;;;;;5017349;28;20060;-88
2022/03/07 10:57:10;;;;;;;6.70;4.43;;;6.80;99.90;;;;;;5017210;28;20052;-89
2022/03/07 10:59:38;;;;;;;5.80;4.20;;;6.90;99.90;;;;;;5003732;28;20111;-90
2022/03/07 11:02:06;;;;;;;6.43;4.37;;;7.10;99.90;;;;;;5034947;28;20397;-88
2022/03/07 11:04:33;;;;;;;7.80;4.30;;;7.30;99.90;;;;;;5017725;28;20069;-89
2022/03/07 11:06:58;;;;;;;5.20;4.07;;;7.50;99.90;;;;;;5001844;28;20103;-89
2022/03/07 11:09:24;;;;;;;6.33;4.30;;;7.60;99.90;;;;;;5019937;28;20044;-89
2022/03/07 11:11:53;;;;;;;4.63;3.60;;;7.60;99.90;;;;;;5001216;28;20476;-89
2022/03/07 11:14:20;;;;;;;7.13;4.13;;;7.70;99.90;;;;;;5016264;28;20040;-89
2022/03/07 11:16:49;;;;;;;6.17;3.30;;;7.80;99.90;;;;;;5001022;28;20399;-90
2022/03/07 11:19:21;;;;;;;3.37;2.53;;;7.90;99.90;;;;;;5016474;28;20488;-88
2022/03/07 11:21:51;;;;;;;5.68;2.67;;;7.90;99.90;;;;;;5000081;28;20428;-89
2022/03/07 11:24:19;;;;;;;5.00;3.73;;;7.90;99.90;;;;;;5029121;28;20048;-88
2022/03/07 11:26:46;;;;;;;5.30;3.93;;;7.80;99.90;;;;;;4995748;28;20044;-88
2022/03/07 11:29:12;;;;;;;5.47;3.50;;;7.90;99.90;;;;;;5029443;28;20048;-88
2022/03/07 11:31:40;;;;;;;6.37;3.60;;;7.80;99.90;;;;;;5031409;28;20095;-88
2022/03/07 11:34:08;;;;;;;4.73;2.87;;;7.80;99.90;;;;;;5012949;28;20116;-89
2022/03/07 11:36:38;;;;;;;6.13;3.67;;;7.70;99.90;;;;;;5027957;28;20072;-89
2022/03/07 11:39:05;;;;;;;5.07;3.03;;;7.60;99.90;;;;;;5010672;28;20040;-89
2022/03/07 11:41:34;;;;;;;4.77;3.17;;;7.40;99.90;;;;;;5028150;28;20045;-88
2022/03/07 11:44:11;;;;;;;4.43;2.70;;;7.20;99.90;;;;;;5034128;28;20042;-87
2022/03/07 11:46:40;;;;;;;6.47;3.43;;;7.10;99.90;;;;;;5018029;28;20101;-90
2022/03/07 11:49:08;;;;;;;3.30;2.60;;;7.20;99.90;;;;;;5035032;28;20037;-89
2022/03/07 11:51:39;;;;;;;5.90;2.83;;;7.20;99.90;;;;;;5007428;28;20033;-89
2022/03/07 11:54:17;;;;;;;6.13;2.80;;;7.40;99.90;;;;;;5041084;28;20029;-86
2022/03/07 11:56:43;;;;;;;2.43;2.00;;;7.40;99.90;;;;;;5042087;28;20033;-88
2022/03/07 11:59:09;;;;;;;5.03;2.80;;;7.30;99.90;;;;;;5015730;28;20056;-89
2022/03/07 12:01:36;;;;;;;7.30;2.63;;;7.10;99.90;;;;;;5000463;28;20052;-89
2022/03/07 12:04:09;;;;;;;2.97;2.30;;;7.00;99.90;;;;;;5000901;28;20041;-89
2022/03/07 12:06:52;;;;;;;2.97;2.40;;;7.10;99.90;;;;;;5042234;28;20051;-90
2022/03/07 12:09:32;;;;;;;5.27;3.00;;;7.30;99.90;;;;;;5016306;28;20132;-89
2022/03/07 12:12:03;;;;;;;3.70;2.87;;;7.40;99.90;;;;;;5034264;28;21466;-91
2022/03/07 12:14:32;;;;;;;4.47;3.10;;;7.50;99.90;;;;;;5017502;28;20053;-91
2022/03/07 12:17:01;;;;;;;3.17;2.27;;;7.50;99.90;;;;;;5033608;28;20036;-89
2022/03/07 12:19:28;;;;;;;3.73;2.37;;;7.60;99.90;;;;;;5017779;28;20072;-89
2022/03/07 12:21:54;;;;;;;3.43;2.50;;;7.60;99.90;;;;;;5016220;28;20135;-89
2022/03/07 12:24:22;;;;;;;4.73;2.30;;;7.60;99.90;;;;;;5016035;28;20120;-89
2022/03/07 12:26:54;;;;;;;4.43;2.23;;;7.70;99.90;;;;;;5016539;28;20783;-90
2022/03/07 12:29:25;;;;;;;2.30;1.90;;;7.80;99.90;;;;;;5016659;28;20163;-90
2022/03/07 12:31:56;;;;;;;2.90;1.70;;;8.00;99.90;;;;;;5015774;28;20381;-89
2022/03/07 12:34:28;;;;;;;3.15;2.17;;;8.20;99.50;;;;;;5031245;28;20040;-90
2022/03/07 12:37:10;;;;;;;3.03;2.63;;;8.30;99.90;;;;;;5016922;28;20099;-89